createdAt,value
2022-09-12T00:01:22.091Z,70.73
2022-09-12T00:03:51.436Z,70.72
2022-09-12T00:06:23.122Z,70.60
2022-09-12T00:08:51.222Z,70.65
2022-09-12T00:11:18.429Z,70.96
2022-09-12T00:13:44.879Z,70.89
2022-09-12T00:16:21.120Z,71.10
2022-09-12T00:18:48.430Z,70.76
2022-09-12T00:21:17.149Z,70.93
2022-09-12T00:23:44.246Z,70.79
2022-09-12T00:26:11.136Z,71.39
2022-09-12T00:28:40.024Z,71.13
2022-09-12T00:31:10.213Z,71.14
2022-09-12T00:33:36.665Z,70.94
2022-09-12T00:36:14.156Z,70.96
2022-09-12T00:38:42.036Z,71.48
2022-09-12T00:41:16.367Z,71.39
2022-09-12T00:43:46.077Z,71.11
2022-09-12T00:46:25.965Z,71.01
2022-09-12T00:48:58.826Z,71.17
2022-09-12T00:51:26.278Z,71.38
2022-09-12T00:53:55.269Z,71.03
2022-09-12T00:56:23.277Z,71.40
2022-09-12T00:59:01.372Z,71.35
2022-09-12T01:01:32.176Z,71.13
2022-09-12T01:03:59.575Z,71.64
2022-09-12T01:06:29.954Z,71.61
2022-09-12T01:08:57.565Z,71.58
2022-09-12T01:11:23.990Z,71.34
2022-09-12T01:13:50.806Z,71.38
2022-09-12T01:16:17.703Z,71.39
2022-09-12T01:19:11.067Z,71.78
2022-09-12T01:22:01.531Z,71.41
2022-09-12T01:24:39.893Z,71.36
2022-09-12T01:27:22.676Z,71.21
2022-09-12T01:30:19.578Z,71.27
2022-09-12T01:33:06.460Z,71.27
2022-09-12T01:35:45.969Z,71.09
2022-09-12T01:38:23.713Z,71.05
2022-09-12T01:41:12.210Z,71.20
2022-09-12T01:43:48.302Z,71.12
2022-09-12T01:46:19.758Z,71.30
2022-09-12T01:49:00.182Z,71.13
2022-09-12T01:51:35.857Z,70.95
2022-09-12T01:54:09.758Z,71.07
2022-09-12T01:56:40.242Z,70.93
2022-09-12T01:59:16.349Z,71.21
2022-09-12T02:01:58.719Z,70.89
2022-09-12T02:04:34.103Z,71.07
2022-09-12T02:07:08.561Z,70.88
2022-09-12T02:09:47.473Z,71.25
2022-09-12T02:12:20.028Z,71.22
2022-09-12T02:14:55.098Z,70.86
2022-09-12T02:17:26.286Z,70.94
2022-09-12T02:19:57.097Z,70.82
2022-09-12T02:22:27.673Z,71.10
2022-09-12T02:24:59.009Z,70.99
2022-09-12T02:27:37.832Z,71.07
2022-09-12T02:30:06.273Z,70.99
2022-09-12T02:32:40.707Z,71.04
2022-09-12T02:35:14.178Z,71.45
2022-09-12T02:37:46.196Z,71.40
2022-09-12T02:40:13.620Z,71.36
2022-09-12T02:42:40.423Z,71.45
2022-09-12T02:45:08.054Z,71.22
2022-09-12T02:47:40.248Z,71.41
2022-09-12T02:50:08.040Z,71.31
2022-09-12T02:52:35.866Z,71.13
2022-09-12T02:55:05.173Z,70.98
2022-09-12T02:57:32.050Z,70.61
2022-09-12T03:00:01.346Z,70.27
2022-09-12T03:02:46.568Z,70.65
2022-09-12T03:05:22.772Z,70.80
2022-09-12T03:08:00.136Z,70.82
2022-09-12T03:10:39.409Z,70.88
2022-09-12T03:13:26.425Z,70.34
2022-09-12T03:16:08.766Z,70.54
2022-09-12T03:19:06.429Z,70.40
2022-09-12T03:22:00.764Z,70.83
2022-09-12T03:24:35.025Z,70.72
2022-09-12T03:27:16.264Z,70.74
2022-09-12T03:29:44.407Z,70.57
2022-09-12T03:32:10.817Z,70.87
2022-09-12T03:34:37.325Z,70.92
2022-09-12T03:37:04.130Z,70.96
2022-09-12T03:39:30.971Z,70.89
2022-09-12T03:41:57.381Z,70.90
2022-09-12T03:44:25.485Z,70.87
2022-09-12T03:46:51.895Z,71.38
2022-09-12T03:49:18.433Z,71.21
2022-09-12T03:51:44.830Z,71.13
2022-09-12T03:54:11.578Z,71.14
2022-09-12T03:56:38.104Z,71.06
2022-09-12T03:59:06.696Z,71.41
2022-09-12T04:01:33.925Z,71.29
2022-09-12T04:04:00.493Z,71.22
2022-09-12T04:06:26.898Z,71.60
2022-09-12T04:08:54.749Z,71.19
2022-09-12T04:11:23.021Z,71.68
2022-09-12T04:13:50.006Z,71.61
2022-09-12T04:16:17.501Z,71.82
2022-09-12T04:18:45.163Z,71.39
2022-09-12T04:21:15.871Z,71.56
2022-09-12T04:23:42.962Z,71.77
2022-09-12T04:26:10.061Z,71.96
2022-09-12T04:28:38.402Z,72.18
2022-09-12T04:31:08.044Z,72.28
2022-09-12T04:33:37.482Z,72.25
2022-09-12T04:36:16.946Z,71.91
2022-09-12T04:38:45.930Z,71.79
2022-09-12T04:41:18.009Z,71.82
2022-09-12T04:43:47.617Z,72.13
2022-09-12T04:46:17.238Z,71.97
2022-09-12T04:48:43.930Z,71.65
2022-09-12T04:51:13.568Z,71.78
2022-09-12T04:53:40.513Z,71.48
2022-09-12T04:56:09.028Z,71.85
2022-09-12T04:58:36.157Z,71.32
2022-09-12T05:01:08.038Z,71.61
2022-09-12T05:03:35.164Z,71.54
2022-09-12T05:06:09.606Z,71.32
2022-09-12T05:08:36.047Z,71.60
2022-09-12T05:11:14.678Z,71.44
2022-09-12T05:13:41.878Z,71.23
2022-09-12T05:16:11.456Z,71.60
2022-09-12T05:18:38.616Z,71.13
2022-09-12T05:21:07.986Z,71.57
2022-09-12T05:23:34.639Z,71.30
2022-09-12T05:26:02.510Z,71.54
2022-09-12T05:28:34.962Z,71.49
2022-09-12T05:31:12.542Z,71.28
2022-09-12T05:33:41.062Z,71.66
2022-09-12T05:36:11.756Z,71.44
2022-09-12T05:38:38.227Z,71.30
2022-09-12T05:41:07.019Z,71.68
2022-09-12T05:43:34.457Z,71.82
2022-09-12T05:46:05.413Z,71.55
2022-09-12T05:48:35.167Z,71.48
2022-09-12T05:51:08.783Z,71.54
2022-09-12T05:53:37.373Z,71.32
2022-09-12T05:56:04.922Z,71.45
2022-09-12T05:58:31.446Z,71.45
2022-09-12T06:01:02.683Z,71.03
2022-09-12T06:03:29.094Z,71.43
2022-09-12T06:05:55.513Z,71.17
2022-09-12T06:08:21.948Z,71.25
2022-09-12T06:10:49.426Z,71.21
2022-09-12T06:13:15.775Z,71.33
2022-09-12T06:15:42.185Z,71.32
2022-09-12T06:18:08.549Z,71.31
2022-09-12T06:20:36.778Z,71.39
2022-09-12T06:23:03.189Z,71.79
2022-09-12T06:25:29.565Z,71.62
2022-09-12T06:27:55.938Z,71.40
2022-09-12T06:30:25.294Z,71.40
2022-09-12T06:32:51.994Z,71.68
2022-09-12T06:35:18.965Z,71.31
2022-09-12T06:37:45.631Z,71.68
2022-09-12T06:40:12.366Z,71.38
2022-09-12T06:42:38.777Z,71.34
2022-09-12T06:45:05.468Z,71.49
2022-09-12T06:47:31.989Z,71.13
2022-09-12T06:49:58.390Z,71.19
2022-09-12T06:52:24.914Z,71.16
2022-09-12T06:54:51.284Z,71.57
2022-09-12T06:57:17.864Z,71.01
2022-09-12T06:59:44.775Z,71.24
2022-09-12T07:02:11.249Z,71.32
2022-09-12T07:04:37.661Z,71.18
2022-09-12T07:07:04.456Z,70.90
2022-09-12T07:09:30.852Z,70.51
2022-09-12T07:11:57.198Z,70.33
2022-09-12T07:14:23.602Z,70.49
2022-09-12T07:16:50.004Z,70.62
2022-09-12T07:19:16.537Z,70.57
2022-09-12T07:21:43.008Z,70.65
2022-09-12T07:24:10.614Z,70.15
2022-09-12T07:26:38.117Z,70.12
2022-09-12T07:29:32.241Z,69.83
2022-09-12T07:31:51.598Z,69.91
2022-09-12T07:34:18.056Z,70.20
2022-09-12T07:36:44.491Z,69.71
2022-09-12T07:39:10.865Z,69.97
2022-09-12T07:41:37.250Z,69.93
2022-09-12T07:44:04.937Z,69.71
2022-09-12T07:46:31.828Z,69.78
2022-09-12T07:48:59.838Z,69.50
2022-09-12T07:51:28.091Z,69.43
2022-09-12T07:53:56.230Z,69.08
2022-09-12T07:56:27.383Z,69.27
2022-09-12T07:58:56.743Z,68.88
2022-09-12T08:01:23.372Z,68.68
2022-09-12T08:03:54.211Z,68.47
2022-09-12T08:06:24.085Z,68.40
2022-09-12T08:08:52.398Z,68.12
2022-09-12T08:11:21.042Z,68.11
2022-09-12T08:13:52.972Z,68.15
2022-09-12T08:16:23.413Z,68.32
2022-09-12T08:18:50.170Z,68.11
2022-09-12T08:21:28.034Z,67.96
2022-09-12T08:23:56.571Z,67.71
2022-09-12T08:26:23.467Z,67.84
2022-09-12T08:28:49.997Z,67.20
2022-09-12T08:31:19.114Z,66.83
2022-09-12T08:33:45.882Z,66.92
2022-09-12T08:36:20.323Z,66.79
2022-09-12T08:38:48.584Z,66.82
2022-09-12T08:41:17.765Z,66.82
2022-09-12T08:43:44.142Z,66.86
2022-09-12T08:46:27.128Z,66.77
2022-09-12T08:48:57.305Z,66.89
2022-09-12T08:51:24.332Z,66.77
2022-09-12T08:53:54.557Z,66.71
2022-09-12T08:56:21.329Z,66.79
2022-09-12T08:58:48.690Z,66.99
2022-09-12T09:01:31.638Z,66.66
2022-09-12T09:04:07.017Z,66.68
2022-09-12T09:06:47.304Z,66.57
2022-09-12T09:09:42.864Z,66.29
2022-09-12T09:12:31.165Z,66.25
2022-09-12T09:15:04.940Z,66.18
2022-09-12T09:17:40.537Z,66.17
2022-09-12T09:20:22.663Z,66.09
2022-09-12T09:22:55.030Z,66.26
2022-09-12T09:25:29.239Z,66.22
2022-09-12T09:28:16.203Z,66.21
2022-09-12T09:30:43.747Z,65.87
2022-09-12T09:33:20.962Z,66.00
2022-09-12T09:35:54.816Z,65.71
2022-09-12T09:39:00.693Z,65.42
2022-09-12T09:41:39.730Z,65.17
2022-09-12T09:46:37.470Z,64.79
2022-09-12T09:49:06.991Z,64.83
2022-09-12T09:51:39.519Z,64.76
2022-09-12T09:54:25.380Z,64.80
2022-09-12T09:56:52.289Z,64.46
2022-09-12T09:59:19.969Z,64.57
2022-09-12T10:01:54.770Z,64.71
2022-09-12T10:04:24.855Z,64.88
2022-09-12T10:06:57.258Z,64.33
2022-09-12T10:09:28.773Z,64.12
2022-09-12T10:11:56.826Z,64.03
2022-09-12T10:14:42.104Z,63.84
2022-09-12T10:17:34.202Z,63.81
2022-09-12T10:20:20.473Z,63.91
2022-09-12T10:22:48.897Z,63.80
2022-09-12T10:25:18.892Z,63.96
2022-09-12T10:27:53.505Z,63.63
2022-09-12T10:30:24.546Z,63.50
2022-09-12T10:32:53.954Z,63.68
2022-09-12T10:35:24.005Z,63.17
2022-09-12T10:37:57.677Z,63.51
2022-09-12T10:40:37.248Z,63.20
2022-09-12T10:43:26.301Z,63.05
2022-09-12T10:45:58.245Z,63.20
2022-09-12T10:48:24.626Z,63.07
2022-09-12T10:50:51.855Z,62.97
2022-09-12T10:53:21.526Z,63.34
2022-09-12T10:56:10.538Z,63.52
2022-09-12T10:58:58.377Z,63.82
2022-09-12T11:01:45.771Z,63.65
2022-09-12T11:04:31.945Z,63.52
2022-09-12T11:07:25.990Z,63.19
2022-09-12T11:10:13.361Z,62.88
2022-09-12T11:13:06.000Z,62.34
2022-09-12T11:15:54.123Z,62.83
2022-09-12T11:18:48.647Z,62.87
2022-09-12T11:21:27.209Z,62.32
2022-09-12T11:24:22.966Z,62.47
2022-09-12T11:27:11.270Z,62.30
2022-09-12T11:29:54.431Z,62.27
2022-09-12T11:32:42.558Z,61.97
2022-09-12T11:35:17.415Z,62.39
2022-09-12T11:38:11.215Z,61.83
2022-09-12T11:40:59.467Z,61.46
2022-09-12T11:43:51.738Z,61.08
2022-09-12T11:46:25.503Z,60.96
2022-09-12T11:49:21.698Z,60.61
2022-09-12T11:52:02.846Z,60.40
2022-09-12T11:54:32.251Z,60.08
2022-09-12T11:57:24.457Z,60.13
2022-09-12T12:00:04.368Z,59.03
2022-09-12T12:02:43.366Z,58.29
2022-09-12T12:05:26.196Z,57.88
2022-09-12T12:07:58.494Z,56.78
2022-09-12T12:10:41.545Z,56.42
2022-09-12T12:13:17.947Z,55.89
2022-09-12T12:15:54.893Z,55.61
2022-09-12T12:18:27.105Z,55.55
2022-09-12T12:20:55.039Z,55.12
2022-09-12T12:23:31.237Z,54.97
2022-09-12T12:26:00.116Z,54.71
2022-09-12T12:28:41.792Z,54.84
2022-09-12T12:31:10.813Z,54.05
2022-09-12T12:33:37.218Z,53.89
2022-09-12T12:36:07.683Z,54.07
2022-09-12T12:38:38.890Z,54.55
2022-09-12T12:41:17.390Z,54.22
2022-09-12T12:43:51.501Z,52.69
2022-09-12T12:46:23.176Z,51.94
2022-09-12T12:48:52.557Z,52.44
2022-09-12T12:51:39.753Z,52.57
2022-09-12T12:54:41.032Z,52.51
2022-09-12T12:57:13.161Z,53.10
2022-09-12T12:59:49.109Z,53.19
2022-09-12T13:02:27.026Z,53.65
2022-09-12T13:04:55.355Z,54.20
2022-09-12T13:07:28.884Z,54.02
2022-09-12T13:09:57.286Z,53.51
2022-09-12T13:12:25.456Z,53.58
2022-09-12T13:14:58.167Z,53.40
2022-09-12T13:17:27.448Z,53.20
2022-09-12T13:20:26.732Z,53.08
2022-09-12T13:22:53.052Z,53.61
2022-09-12T13:25:32.320Z,53.12
2022-09-12T13:28:04.920Z,52.71
2022-09-12T13:30:34.960Z,52.77
2022-09-12T13:33:14.631Z,52.39
2022-09-12T13:36:00.940Z,52.96
2022-09-12T13:38:48.714Z,52.59
2022-09-12T13:41:36.927Z,52.60
2022-09-12T13:44:09.544Z,52.09
2022-09-12T13:46:37.859Z,51.83
2022-09-12T13:49:30.874Z,51.15
2022-09-12T13:52:02.480Z,52.30
2022-09-12T13:54:30.638Z,51.90
2022-09-12T13:56:57.272Z,51.61
2022-09-12T13:59:24.482Z,51.55
2022-09-12T14:01:50.893Z,51.62
2022-09-12T14:04:45.893Z,51.48
2022-09-12T14:07:22.095Z,51.21
2022-09-12T14:09:58.180Z,51.41
2022-09-12T14:12:40.038Z,51.71
2022-09-12T14:15:09.490Z,52.03
2022-09-12T14:17:39.517Z,52.27
2022-09-12T14:20:16.095Z,51.42
2022-09-12T14:22:42.805Z,50.85
2022-09-12T14:25:19.226Z,51.12
2022-09-12T14:27:49.319Z,50.66
2022-09-12T14:30:27.036Z,50.59
2022-09-12T14:33:11.609Z,50.68
2022-09-12T14:35:43.456Z,51.00
2022-09-12T14:38:16.392Z,51.11
2022-09-12T14:40:44.311Z,50.99
2022-09-12T14:43:30.312Z,51.09
2022-09-12T14:46:03.058Z,51.35
2022-09-12T14:48:37.592Z,51.13
2022-09-12T14:51:05.340Z,50.26
2022-09-12T14:53:34.951Z,50.51
2022-09-12T14:56:10.756Z,50.47
2022-09-12T14:58:40.994Z,50.32
2022-09-12T15:01:07.811Z,50.31
2022-09-12T15:03:48.718Z,50.32
2022-09-12T15:06:25.426Z,49.73
2022-09-12T15:08:54.535Z,49.94
2022-09-12T15:11:21.220Z,50.29
2022-09-12T15:13:47.787Z,50.75
2022-09-12T15:16:14.575Z,50.93
2022-09-12T15:18:41.001Z,50.06
2022-09-12T15:21:11.349Z,50.20
2022-09-12T15:23:40.361Z,50.35
2022-09-12T15:26:07.649Z,49.95
2022-09-12T15:28:34.264Z,50.18
2022-09-12T15:31:25.560Z,50.54
2022-09-12T15:33:52.997Z,50.68
2022-09-12T15:36:21.048Z,50.06
2022-09-12T15:38:48.482Z,50.04
2022-09-12T15:41:36.850Z,50.14
2022-09-12T15:44:08.156Z,50.13
2022-09-12T15:46:34.663Z,49.79
2022-09-12T15:49:01.210Z,49.93
2022-09-12T15:51:27.707Z,49.64
2022-09-12T15:53:54.685Z,49.90
2022-09-12T15:56:22.181Z,50.19
2022-09-12T15:58:58.755Z,50.05
2022-09-12T16:01:27.795Z,49.95
2022-09-12T16:03:54.384Z,49.96
2022-09-12T16:06:22.107Z,49.86
2022-09-12T16:08:48.797Z,50.19
2022-09-12T16:11:21.685Z,50.06
2022-09-12T16:13:48.722Z,50.49
2022-09-12T16:16:15.156Z,50.99
2022-09-12T16:18:41.859Z,51.00
2022-09-12T16:21:14.039Z,50.83
2022-09-12T16:23:45.834Z,50.63
2022-09-12T16:26:12.569Z,50.16
2022-09-12T16:28:39.028Z,50.32
2022-09-12T16:31:07.344Z,50.27
2022-09-12T16:33:34.894Z,50.26
2022-09-12T16:36:09.454Z,50.05
2022-09-12T16:38:47.567Z,49.59
2022-09-12T16:41:15.482Z,49.63
2022-09-12T16:43:42.797Z,49.45
2022-09-12T16:46:15.787Z,49.45
2022-09-12T16:48:48.048Z,49.27
2022-09-12T16:51:22.614Z,49.09
2022-09-12T16:53:49.199Z,49.51
2022-09-12T16:56:15.669Z,48.86
2022-09-12T16:58:42.522Z,49.10
2022-09-12T17:01:14.754Z,49.89
2022-09-12T17:03:41.844Z,49.84
2022-09-12T17:06:13.798Z,50.00
2022-09-12T17:08:42.764Z,50.03
2022-09-12T17:11:12.453Z,50.13
2022-09-12T17:14:02.680Z,50.40
2022-09-12T17:16:27.213Z,50.20
2022-09-12T17:18:54.060Z,50.23
2022-09-12T17:21:21.210Z,50.71
2022-09-12T17:23:47.847Z,50.38
2022-09-12T17:26:14.912Z,50.67
2022-09-12T17:28:41.695Z,50.96
2022-09-12T17:31:13.225Z,51.29
2022-09-12T17:33:39.884Z,51.30
2022-09-12T17:36:10.369Z,50.97
2022-09-12T17:38:39.484Z,51.31
2022-09-12T17:41:19.912Z,52.30
2022-09-12T17:43:50.644Z,52.16
2022-09-12T17:46:18.995Z,51.51
2022-09-12T17:48:45.445Z,51.65
2022-09-12T17:51:14.349Z,51.79
2022-09-12T17:53:41.906Z,51.82
2022-09-12T17:56:09.289Z,52.04
2022-09-12T17:58:36.177Z,52.36
2022-09-12T18:01:33.482Z,52.36
2022-09-12T18:04:01.656Z,52.60
2022-09-12T18:06:29.395Z,52.74
2022-09-12T18:08:58.767Z,52.93
2022-09-12T18:11:25.115Z,53.19
2022-09-12T18:13:51.530Z,53.31
2022-09-12T18:16:18.397Z,53.29
2022-09-12T18:18:44.790Z,53.64
2022-09-12T18:21:12.070Z,53.80
2022-09-12T18:23:38.965Z,53.91
2022-09-12T18:26:08.304Z,54.02
2022-09-12T18:28:37.170Z,54.27
2022-09-12T18:31:04.345Z,54.37
2022-09-12T18:33:30.825Z,54.33
2022-09-12T18:35:57.186Z,54.69
2022-09-12T18:38:23.581Z,55.00
2022-09-12T18:40:49.925Z,54.96
2022-09-12T18:43:16.290Z,55.40
2022-09-12T18:45:42.666Z,55.39
2022-09-12T18:48:09.352Z,55.34
2022-09-12T18:50:35.754Z,55.50
2022-09-12T18:53:02.148Z,55.38
2022-09-12T18:55:30.310Z,55.43
2022-09-12T18:57:56.725Z,55.66
2022-09-12T19:00:23.100Z,55.83
2022-09-12T19:02:49.500Z,55.71
2022-09-12T19:05:15.911Z,55.99
2022-09-12T19:07:42.267Z,56.05
2022-09-12T19:10:08.999Z,56.18
2022-09-12T19:12:35.468Z,56.23
2022-09-12T19:15:02.010Z,56.56
2022-09-12T19:17:28.690Z,56.73
2022-09-12T19:19:55.380Z,56.65
2022-09-12T19:22:22.147Z,56.88
2022-09-12T19:24:48.518Z,56.91
2022-09-12T19:27:15.965Z,57.13
2022-09-12T19:29:42.409Z,57.14
2022-09-12T19:32:08.795Z,57.08
2022-09-12T19:34:35.183Z,57.27
2022-09-12T19:37:01.553Z,57.49
2022-09-12T19:39:28.062Z,57.63
2022-09-12T19:41:54.442Z,57.48
2022-09-12T19:44:20.893Z,57.66
2022-09-12T19:46:47.659Z,57.82
2022-09-12T19:49:14.089Z,58.14
2022-09-12T19:51:40.514Z,58.23
2022-09-12T19:54:07.599Z,58.43
2022-09-12T19:56:33.985Z,58.34
2022-09-12T19:59:00.348Z,58.72
2022-09-12T20:01:28.487Z,58.80
2022-09-12T20:03:56.667Z,58.65
2022-09-12T20:06:23.190Z,58.88
2022-09-12T20:08:49.863Z,58.95
2022-09-12T20:11:21.460Z,59.12
2022-09-12T20:13:48.021Z,59.32
2022-09-12T20:16:21.750Z,59.20
2022-09-12T20:18:53.861Z,59.49
2022-09-12T20:21:25.110Z,59.68
2022-09-12T20:23:51.804Z,59.86
2022-09-12T20:26:20.053Z,59.72
2022-09-12T20:28:46.413Z,59.84
2022-09-12T20:31:15.038Z,59.94
2022-09-12T20:33:41.722Z,60.07
2022-09-12T20:36:11.562Z,59.96
2022-09-12T20:38:38.630Z,60.17
2022-09-12T20:41:07.173Z,60.26
2022-09-12T20:43:33.506Z,60.30
2022-09-12T20:45:59.913Z,60.37
2022-09-12T20:48:27.060Z,60.59
2022-09-12T20:50:53.465Z,60.82
2022-09-12T20:53:20.106Z,60.84
2022-09-12T20:55:52.854Z,60.95
2022-09-12T20:58:20.393Z,61.17
2022-09-12T21:00:47.114Z,61.17
2022-09-12T21:03:14.677Z,61.08
2022-09-12T21:05:45.253Z,61.05
2022-09-12T21:08:12.105Z,61.24
2022-09-12T21:10:41.601Z,61.12
2022-09-12T21:13:12.561Z,61.09
2022-09-12T21:15:39.987Z,61.16
2022-09-12T21:18:07.138Z,60.80
2022-09-12T21:20:33.926Z,61.14
2022-09-12T21:23:00.399Z,60.90
2022-09-12T21:25:28.875Z,61.02
2022-09-12T21:27:55.404Z,60.87
2022-09-12T21:30:22.320Z,61.08
2022-09-12T21:32:48.790Z,61.31
2022-09-12T21:35:15.241Z,61.03
2022-09-12T21:37:41.633Z,61.10
2022-09-12T21:40:08.379Z,61.08
2022-09-12T21:42:34.800Z,60.69
2022-09-12T21:45:01.198Z,60.70
2022-09-12T21:47:27.552Z,60.82
2022-09-12T21:49:55.190Z,60.86
2022-09-12T21:52:21.977Z,61.32
2022-09-12T21:54:48.351Z,60.94
2022-09-12T21:57:14.749Z,61.07
2022-09-12T21:59:41.351Z,60.93
2022-09-12T22:02:08.635Z,60.92
2022-09-12T22:04:35.065Z,61.03
2022-09-12T22:07:02.054Z,60.77
2022-09-12T22:09:28.460Z,61.02
2022-09-12T22:11:55.428Z,60.71
2022-09-12T22:14:21.801Z,60.52
2022-09-12T22:16:48.364Z,60.52
2022-09-12T22:19:14.993Z,60.36
2022-09-12T22:22:01.345Z,60.44
2022-09-12T22:24:27.930Z,60.57
2022-09-12T22:26:54.954Z,60.36
2022-09-12T22:29:21.821Z,60.52
2022-09-12T22:31:48.429Z,60.48
2022-09-12T22:34:15.343Z,60.53
2022-09-12T22:36:41.810Z,60.72
2022-09-12T22:39:08.555Z,60.68
2022-09-12T22:41:34.932Z,60.82
2022-09-12T22:44:01.383Z,60.82
2022-09-12T22:46:27.836Z,60.96
2022-09-12T22:48:55.880Z,60.99
2022-09-12T22:51:22.253Z,61.58
2022-09-12T22:53:48.825Z,61.14
2022-09-12T22:56:15.542Z,61.02
2022-09-12T22:58:42.139Z,61.16
2022-09-12T23:01:08.640Z,61.31
2022-09-12T23:03:36.228Z,61.30
2022-09-12T23:06:04.149Z,61.49
2022-09-12T23:08:30.533Z,61.42
2022-09-12T23:11:19.209Z,61.73
2022-09-12T23:13:48.081Z,61.99
2022-09-12T23:16:20.174Z,62.34
2022-09-12T23:18:47.563Z,62.38
2022-09-12T23:21:16.013Z,62.50
2022-09-12T23:23:42.573Z,62.54
2022-09-12T23:26:13.354Z,62.60
2022-09-12T23:28:40.837Z,62.68
2022-09-12T23:31:09.401Z,62.70
2022-09-12T23:33:36.306Z,62.75
2022-09-12T23:36:08.777Z,63.08
2022-09-12T23:38:36.163Z,63.27
2022-09-12T23:41:03.597Z,63.25
2022-09-12T23:43:30.854Z,63.22
2022-09-12T23:45:58.007Z,63.36
2022-09-12T23:48:24.563Z,63.30
2022-09-12T23:50:51.623Z,63.40
2022-09-12T23:53:18.380Z,63.41
2022-09-12T23:55:44.819Z,63.88
2022-09-12T23:58:12.065Z,64.33
